sensor_id;sensor_type;location;lat;lon;timestamp;temperature;humidity
12043;DHT22;6082;49.306;12.862;2024-03-07T00:00:34;2.60;99.90
12043;DHT22;6082;49.306;12.862;2024-03-07T00:03:01;2.50;99.90
12043;DHT22;6082;49.306;12.862;2024-03-07T00:05:27;2.40;99.90
12043;DHT22;6082;49.306;12.862;2024-03-07T00:07:53;2.50;99.90
12043;DHT22;6082;49.306;12.862;2024-03-07T00:10:19;2.50;99.90
12043;DHT22;6082;49.306;12.862;2024-03-07T00:12:46;2.50;99.90
12043;DHT22;6082;49.306;12.862;2024-03-07T00:15:13;2.50;99.90
12043;DHT22;6082;49.306;12.862;2024-03-07T00:17:40;2.40;99.90
12043;DHT22;6082;49.306;12.862;2024-03-07T00:20:06;2.30;99.90
12043;DHT22;6082;49.306;12.862;2024-03-07T00:22:43;2.20;99.90
12043;DHT22;6082;49.306;12.862;2024-03-07T00:25:09;2.10;99.90
12043;DHT22;6082;49.306;12.862;2024-03-07T00:27:38;2.10;99.90
12043;DHT22;6082;49.306;12.862;2024-03-07T00:30:07;2.00;99.90
12043;DHT22;6082;49.306;12.862;2024-03-07T00:32:34;2.00;99.90
12043;DHT22;6082;49.306;12.862;2024-03-07T00:35:05;2.00;99.90
12043;DHT22;6082;49.306;12.862;2024-03-07T00:37:31;2.00;99.90
12043;DHT22;6082;49.306;12.862;2024-03-07T00:39:57;2.00;99.90
12043;DHT22;6082;49.306;12.862;2024-03-07T00:42:23;2.00;99.90
12043;DHT22;6082;49.306;12.862;2024-03-07T00:44:49;2.00;99.90
12043;DHT22;6082;49.306;12.862;2024-03-07T00:47:15;2.00;99.90
12043;DHT22;6082;49.306;12.862;2024-03-07T00:49:43;2.00;99.90
12043;DHT22;6082;49.306;12.862;2024-03-07T00:52:11;2.00;99.90
12043;DHT22;6082;49.306;12.862;2024-03-07T00:54:36;2.10;99.90
12043;DHT22;6082;49.306;12.862;2024-03-07T00:57:02;2.10;99.90
12043;DHT22;6082;49.306;12.862;2024-03-07T00:59:28;2.10;99.90
12043;DHT22;6082;49.306;12.862;2024-03-07T01:01:53;2.00;99.90
12043;DHT22;6082;49.306;12.862;2024-03-07T01:04:19;1.90;99.90
12043;DHT22;6082;49.306;12.862;2024-03-07T01:06:45;1.90;99.90
12043;DHT22;6082;49.306;12.862;2024-03-07T01:09:11;2.00;99.90
12043;DHT22;6082;49.306;12.862;2024-03-07T01:11:43;2.00;99.90
12043;DHT22;6082;49.306;12.862;2024-03-07T01:14:11;1.90;99.90
12043;DHT22;6082;49.306;12.862;2024-03-07T01:16:37;2.00;99.90
12043;DHT22;6082;49.306;12.862;2024-03-07T01:19:02;2.00;99.90
12043;DHT22;6082;49.306;12.862;2024-03-07T01:21:35;2.00;99.90
12043;DHT22;6082;49.306;12.862;2024-03-07T01:24:03;2.10;99.90
12043;DHT22;6082;49.306;12.862;2024-03-07T01:26:29;2.10;99.90
12043;DHT22;6082;49.306;12.862;2024-03-07T01:28:56;2.10;99.90
12043;DHT22;6082;49.306;12.862;2024-03-07T01:31:24;2.10;99.90
12043;DHT22;6082;49.306;12.862;2024-03-07T01:33:50;2.10;99.90
12043;DHT22;6082;49.306;12.862;2024-03-07T01:36:16;2.10;99.90
12043;DHT22;6082;49.306;12.862;2024-03-07T01:38:42;2.10;99.90
12043;DHT22;6082;49.306;12.862;2024-03-07T01:41:07;2.10;99.90
12043;DHT22;6082;49.306;12.862;2024-03-07T01:43:34;2.10;99.90
12043;DHT22;6082;49.306;12.862;2024-03-07T01:46:00;2.10;99.90
12043;DHT22;6082;49.306;12.862;2024-03-07T01:48:27;2.10;99.90
12043;DHT22;6082;49.306;12.862;2024-03-07T01:50:59;2.10;99.90
12043;DHT22;6082;49.306;12.862;2024-03-07T01:53:29;2.10;99.90
12043;DHT22;6082;49.306;12.862;2024-03-07T01:55:56;2.10;99.90
12043;DHT22;6082;49.306;12.862;2024-03-07T01:58:22;2.10;99.90
12043;DHT22;6082;49.306;12.862;2024-03-07T02:00:49;2.10;99.90
12043;DHT22;6082;49.306;12.862;2024-03-07T02:03:15;2.20;99.90
12043;DHT22;6082;49.306;12.862;2024-03-07T02:05:41;2.20;99.90
12043;DHT22;6082;49.306;12.862;2024-03-07T02:08:07;2.20;99.90
12043;DHT22;6082;49.306;12.862;2024-03-07T02:10:33;2.20;99.90
12043;DHT22;6082;49.306;12.862;2024-03-07T02:12:59;2.10;99.90
12043;DHT22;6082;49.306;12.862;2024-03-07T02:15:27;2.10;99.90
12043;DHT22;6082;49.306;12.862;2024-03-07T02:17:53;2.20;99.90
12043;DHT22;6082;49.306;12.862;2024-03-07T02:20:19;2.20;99.90
12043;DHT22;6082;49.306;12.862;2024-03-07T02:22:44;2.10;99.90
12043;DHT22;6082;49.306;12.862;2024-03-07T02:25:10;2.10;99.90
12043;DHT22;6082;49.306;12.862;2024-03-07T02:27:37;2.10;99.90
12043;DHT22;6082;49.306;12.862;2024-03-07T02:30:03;2.10;99.90
12043;DHT22;6082;49.306;12.862;2024-03-07T02:32:31;2.10;99.90
12043;DHT22;6082;49.306;12.862;2024-03-07T02:34:57;2.20;99.90
12043;DHT22;6082;49.306;12.862;2024-03-07T02:37:23;2.20;99.90
12043;DHT22;6082;49.306;12.862;2024-03-07T02:39:48;2.20;99.90
12043;DHT22;6082;49.306;12.862;2024-03-07T02:42:14;2.20;99.90
12043;DHT22;6082;49.306;12.862;2024-03-07T02:44:40;2.20;99.90
12043;DHT22;6082;49.306;12.862;2024-03-07T02:47:06;2.20;99.90
12043;DHT22;6082;49.306;12.862;2024-03-07T02:49:32;2.20;99.90
12043;DHT22;6082;49.306;12.862;2024-03-07T02:51:58;2.10;99.90
12043;DHT22;6082;49.306;12.862;2024-03-07T02:54:23;2.20;99.90
12043;DHT22;6082;49.306;12.862;2024-03-07T02:56:49;2.10;99.90
12043;DHT22;6082;49.306;12.862;2024-03-07T02:59:15;2.00;99.90
12043;DHT22;6082;49.306;12.862;2024-03-07T03:01:42;2.00;99.90
12043;DHT22;6082;49.306;12.862;2024-03-07T03:04:07;2.00;99.90
12043;DHT22;6082;49.306;12.862;2024-03-07T03:06:33;2.00;99.90
12043;DHT22;6082;49.306;12.862;2024-03-07T03:09:00;2.00;99.90
12043;DHT22;6082;49.306;12.862;2024-03-07T03:11:25;2.00;99.90
12043;DHT22;6082;49.306;12.862;2024-03-07T03:13:53;2.00;99.90
12043;DHT22;6082;49.306;12.862;2024-03-07T03:16:18;2.00;99.90
12043;DHT22;6082;49.306;12.862;2024-03-07T03:18:44;2.10;99.90
12043;DHT22;6082;49.306;12.862;2024-03-07T03:21:10;2.10;99.90
12043;DHT22;6082;49.306;12.862;2024-03-07T03:23:36;2.00;99.90
12043;DHT22;6082;49.306;12.862;2024-03-07T03:26:01;2.00;99.90
12043;DHT22;6082;49.306;12.862;2024-03-07T03:28:27;2.00;99.90
12043;DHT22;6082;49.306;12.862;2024-03-07T03:30:53;2.00;99.90
12043;DHT22;6082;49.306;12.862;2024-03-07T03:33:19;2.10;99.90
12043;DHT22;6082;49.306;12.862;2024-03-07T03:35:46;2.10;99.90
12043;DHT22;6082;49.306;12.862;2024-03-07T03:38:12;2.10;99.90
12043;DHT22;6082;49.306;12.862;2024-03-07T03:40:38;2.10;99.90
12043;DHT22;6082;49.306;12.862;2024-03-07T03:43:04;2.10;99.90
12043;DHT22;6082;49.306;12.862;2024-03-07T03:45:30;2.10;99.90
12043;DHT22;6082;49.306;12.862;2024-03-07T03:47:57;2.10;99.90
12043;DHT22;6082;49.306;12.862;2024-03-07T03:50:23;2.10;99.90
12043;DHT22;6082;49.306;12.862;2024-03-07T03:52:49;2.10;99.90
12043;DHT22;6082;49.306;12.862;2024-03-07T03:55:15;2.10;99.90
12043;DHT22;6082;49.306;12.862;2024-03-07T03:57:42;2.10;99.90
12043;DHT22;6082;49.306;12.862;2024-03-07T04:00:10;2.10;99.90
12043;DHT22;6082;49.306;12.862;2024-03-07T04:05:05;2.20;99.90
12043;DHT22;6082;49.306;12.862;2024-03-07T04:07:31;2.20;99.90
12043;DHT22;6082;49.306;12.862;2024-03-07T04:09:57;2.10;99.90
12043;DHT22;6082;49.306;12.862;2024-03-07T04:12:26;2.20;99.90
12043;DHT22;6082;49.306;12.862;2024-03-07T04:14:53;2.20;99.90
12043;DHT22;6082;49.306;12.862;2024-03-07T04:17:22;2.10;99.90
12043;DHT22;6082;49.306;12.862;2024-03-07T04:19:48;2.10;99.90
12043;DHT22;6082;49.306;12.862;2024-03-07T04:22:13;2.10;99.90
12043;DHT22;6082;49.306;12.862;2024-03-07T04:24:39;2.10;99.90
12043;DHT22;6082;49.306;12.862;2024-03-07T04:27:06;2.10;99.90
12043;DHT22;6082;49.306;12.862;2024-03-07T04:29:35;2.10;99.90
12043;DHT22;6082;49.306;12.862;2024-03-07T04:32:02;2.00;99.90
12043;DHT22;6082;49.306;12.862;2024-03-07T04:34:29;2.00;99.90
12043;DHT22;6082;49.306;12.862;2024-03-07T04:37:00;2.10;99.90
12043;DHT22;6082;49.306;12.862;2024-03-07T04:39:29;2.10;99.90
12043;DHT22;6082;49.306;12.862;2024-03-07T04:42:02;2.10;99.90
12043;DHT22;6082;49.306;12.862;2024-03-07T04:44:30;2.10;99.90
12043;DHT22;6082;49.306;12.862;2024-03-07T04:47:00;2.10;99.90
12043;DHT22;6082;49.306;12.862;2024-03-07T04:49:30;2.10;99.90
12043;DHT22;6082;49.306;12.862;2024-03-07T04:51:57;2.10;99.90
12043;DHT22;6082;49.306;12.862;2024-03-07T04:54:24;2.10;99.90
12043;DHT22;6082;49.306;12.862;2024-03-07T04:56:52;2.10;99.90
12043;DHT22;6082;49.306;12.862;2024-03-07T04:59:19;2.10;99.90
12043;DHT22;6082;49.306;12.862;2024-03-07T05:01:45;2.10;99.90
12043;DHT22;6082;49.306;12.862;2024-03-07T05:04:15;2.00;99.90
12043;DHT22;6082;49.306;12.862;2024-03-07T05:06:41;2.00;99.90
12043;DHT22;6082;49.306;12.862;2024-03-07T05:09:09;2.00;99.90
12043;DHT22;6082;49.306;12.862;2024-03-07T05:11:39;2.00;99.90
12043;DHT22;6082;49.306;12.862;2024-03-07T05:14:04;2.10;99.90
12043;DHT22;6082;49.306;12.862;2024-03-07T05:16:31;2.10;99.90
12043;DHT22;6082;49.306;12.862;2024-03-07T05:18:57;2.10;99.90
12043;DHT22;6082;49.306;12.862;2024-03-07T05:21:26;2.10;99.90
12043;DHT22;6082;49.306;12.862;2024-03-07T05:24:04;2.10;99.90
12043;DHT22;6082;49.306;12.862;2024-03-07T05:26:30;2.10;99.90
12043;DHT22;6082;49.306;12.862;2024-03-07T05:29:04;2.10;99.90
12043;DHT22;6082;49.306;12.862;2024-03-07T05:31:31;2.10;99.90
12043;DHT22;6082;49.306;12.862;2024-03-07T05:34:00;2.10;99.90
12043;DHT22;6082;49.306;12.862;2024-03-07T05:36:29;2.10;99.90
12043;DHT22;6082;49.306;12.862;2024-03-07T05:38:56;2.10;99.90
12043;DHT22;6082;49.306;12.862;2024-03-07T05:41:22;2.20;99.90
12043;DHT22;6082;49.306;12.862;2024-03-07T05:43:47;2.20;99.90
12043;DHT22;6082;49.306;12.862;2024-03-07T05:46:15;2.20;99.90
12043;DHT22;6082;49.306;12.862;2024-03-07T05:48:41;2.30;99.90
12043;DHT22;6082;49.306;12.862;2024-03-07T05:51:07;2.30;99.90
12043;DHT22;6082;49.306;12.862;2024-03-07T05:53:32;2.30;99.90
12043;DHT22;6082;49.306;12.862;2024-03-07T05:55:58;2.30;99.90
12043;DHT22;6082;49.306;12.862;2024-03-07T05:58:24;2.30;99.90
12043;DHT22;6082;49.306;12.862;2024-03-07T06:00:49;2.20;99.90
12043;DHT22;6082;49.306;12.862;2024-03-07T06:03:17;2.30;99.90
12043;DHT22;6082;49.306;12.862;2024-03-07T06:05:45;2.20;99.90
12043;DHT22;6082;49.306;12.862;2024-03-07T06:08:15;2.30;99.90
12043;DHT22;6082;49.306;12.862;2024-03-07T06:10:43;2.30;99.90
12043;DHT22;6082;49.306;12.862;2024-03-07T06:13:09;2.20;99.90
12043;DHT22;6082;49.306;12.862;2024-03-07T06:15:37;2.30;99.90
12043;DHT22;6082;49.306;12.862;2024-03-07T06:18:04;2.20;99.90
12043;DHT22;6082;49.306;12.862;2024-03-07T06:20:30;2.20;99.90
12043;DHT22;6082;49.306;12.862;2024-03-07T06:22:55;2.30;99.90
12043;DHT22;6082;49.306;12.862;2024-03-07T06:25:23;2.30;99.90
12043;DHT22;6082;49.306;12.862;2024-03-07T06:28:03;2.30;99.90
12043;DHT22;6082;49.306;12.862;2024-03-07T06:30:38;2.30;99.90
12043;DHT22;6082;49.306;12.862;2024-03-07T06:33:09;2.30;99.90
12043;DHT22;6082;49.306;12.862;2024-03-07T06:35:35;2.30;99.90
12043;DHT22;6082;49.306;12.862;2024-03-07T06:38:08;2.40;99.90
12043;DHT22;6082;49.306;12.862;2024-03-07T06:40:35;2.40;99.90
12043;DHT22;6082;49.306;12.862;2024-03-07T06:43:00;2.40;99.90
12043;DHT22;6082;49.306;12.862;2024-03-07T06:45:29;2.40;99.90
12043;DHT22;6082;49.306;12.862;2024-03-07T06:47:55;2.40;99.90
12043;DHT22;6082;49.306;12.862;2024-03-07T06:50:21;2.40;99.90
12043;DHT22;6082;49.306;12.862;2024-03-07T06:52:47;2.40;99.90
12043;DHT22;6082;49.306;12.862;2024-03-07T06:55:17;2.40;99.90
12043;DHT22;6082;49.306;12.862;2024-03-07T06:57:44;2.40;99.90
12043;DHT22;6082;49.306;12.862;2024-03-07T07:00:14;2.40;99.90
12043;DHT22;6082;49.306;12.862;2024-03-07T07:02:45;2.40;99.90
12043;DHT22;6082;49.306;12.862;2024-03-07T07:05:11;2.40;99.90
12043;DHT22;6082;49.306;12.862;2024-03-07T07:07:38;2.50;99.90
12043;DHT22;6082;49.306;12.862;2024-03-07T07:10:05;2.50;99.90
12043;DHT22;6082;49.306;12.862;2024-03-07T07:12:34;2.50;99.90
12043;DHT22;6082;49.306;12.862;2024-03-07T07:15:00;2.50;99.90
12043;DHT22;6082;49.306;12.862;2024-03-07T07:17:26;2.50;99.90
12043;DHT22;6082;49.306;12.862;2024-03-07T07:19:57;2.50;99.90
12043;DHT22;6082;49.306;12.862;2024-03-07T07:22:25;2.50;99.90
12043;DHT22;6082;49.306;12.862;2024-03-07T07:24:51;2.50;99.90
12043;DHT22;6082;49.306;12.862;2024-03-07T07:27:17;2.50;99.90
12043;DHT22;6082;49.306;12.862;2024-03-07T07:29:44;2.60;99.90
12043;DHT22;6082;49.306;12.862;2024-03-07T07:32:10;2.60;99.90
12043;DHT22;6082;49.306;12.862;2024-03-07T07:34:38;2.70;99.90
12043;DHT22;6082;49.306;12.862;2024-03-07T07:37:04;2.70;99.90
12043;DHT22;6082;49.306;12.862;2024-03-07T07:39:30;2.60;99.90
12043;DHT22;6082;49.306;12.862;2024-03-07T07:41:57;2.60;99.90
12043;DHT22;6082;49.306;12.862;2024-03-07T07:44:23;2.60;99.90
12043;DHT22;6082;49.306;12.862;2024-03-07T07:46:48;2.60;99.90
12043;DHT22;6082;49.306;12.862;2024-03-07T07:49:15;2.60;99.90
12043;DHT22;6082;49.306;12.862;2024-03-07T07:51:41;2.60;99.90
12043;DHT22;6082;49.306;12.862;2024-03-07T07:54:07;2.60;99.90
12043;DHT22;6082;49.306;12.862;2024-03-07T07:56:35;2.60;99.90
12043;DHT22;6082;49.306;12.862;2024-03-07T07:59:01;2.60;99.90
12043;DHT22;6082;49.306;12.862;2024-03-07T08:01:30;2.60;99.90
12043;DHT22;6082;49.306;12.862;2024-03-07T08:03:55;2.60;99.90
12043;DHT22;6082;49.306;12.862;2024-03-07T08:06:22;2.60;99.90
12043;DHT22;6082;49.306;12.862;2024-03-07T08:08:48;2.70;99.90
12043;DHT22;6082;49.306;12.862;2024-03-07T08:11:13;2.70;99.90
12043;DHT22;6082;49.306;12.862;2024-03-07T08:13:40;2.70;99.90
12043;DHT22;6082;49.306;12.862;2024-03-07T08:16:06;2.70;99.90
12043;DHT22;6082;49.306;12.862;2024-03-07T08:18:32;2.80;99.90
12043;DHT22;6082;49.306;12.862;2024-03-07T08:20:58;2.80;99.90
12043;DHT22;6082;49.306;12.862;2024-03-07T08:23:24;2.80;99.90
12043;DHT22;6082;49.306;12.862;2024-03-07T08:25:51;2.80;99.90
12043;DHT22;6082;49.306;12.862;2024-03-07T08:28:17;2.80;99.90
12043;DHT22;6082;49.306;12.862;2024-03-07T08:30:44;2.80;99.90
12043;DHT22;6082;49.306;12.862;2024-03-07T08:33:10;2.90;99.90
12043;DHT22;6082;49.306;12.862;2024-03-07T08:35:36;2.90;99.90
12043;DHT22;6082;49.306;12.862;2024-03-07T08:38:02;3.00;99.90
12043;DHT22;6082;49.306;12.862;2024-03-07T08:40:29;2.90;99.90
12043;DHT22;6082;49.306;12.862;2024-03-07T08:42:58;3.00;99.90
12043;DHT22;6082;49.306;12.862;2024-03-07T08:45:25;3.00;99.90
12043;DHT22;6082;49.306;12.862;2024-03-07T08:47:53;3.00;99.90
12043;DHT22;6082;49.306;12.862;2024-03-07T08:50:22;3.00;99.90
12043;DHT22;6082;49.306;12.862;2024-03-07T08:52:49;3.10;99.90
12043;DHT22;6082;49.306;12.862;2024-03-07T08:55:16;3.10;99.90
12043;DHT22;6082;49.306;12.862;2024-03-07T08:57:43;3.20;99.90
12043;DHT22;6082;49.306;12.862;2024-03-07T09:00:13;3.30;99.90
12043;DHT22;6082;49.306;12.862;2024-03-07T09:02:49;3.30;99.90
12043;DHT22;6082;49.306;12.862;2024-03-07T09:05:19;3.30;99.90
12043;DHT22;6082;49.306;12.862;2024-03-07T09:07:46;3.30;99.90
12043;DHT22;6082;49.306;12.862;2024-03-07T09:10:13;3.40;99.90
12043;DHT22;6082;49.306;12.862;2024-03-07T09:12:40;3.40;99.90
12043;DHT22;6082;49.306;12.862;2024-03-07T09:15:06;3.40;99.90
12043;DHT22;6082;49.306;12.862;2024-03-07T09:17:32;3.40;99.90
12043;DHT22;6082;49.306;12.862;2024-03-07T09:19:59;3.50;99.90
12043;DHT22;6082;49.306;12.862;2024-03-07T09:22:24;3.50;99.90
12043;DHT22;6082;49.306;12.862;2024-03-07T09:24:50;3.50;99.90
12043;DHT22;6082;49.306;12.862;2024-03-07T09:27:17;3.50;99.90
12043;DHT22;6082;49.306;12.862;2024-03-07T09:29:45;3.60;99.90
12043;DHT22;6082;49.306;12.862;2024-03-07T09:32:13;3.60;99.90
12043;DHT22;6082;49.306;12.862;2024-03-07T09:34:39;3.60;99.90
12043;DHT22;6082;49.306;12.862;2024-03-07T09:37:04;3.60;99.90
12043;DHT22;6082;49.306;12.862;2024-03-07T09:39:34;3.60;99.90
12043;DHT22;6082;49.306;12.862;2024-03-07T09:42:04;3.60;99.90
12043;DHT22;6082;49.306;12.862;2024-03-07T09:44:33;3.60;99.90
12043;DHT22;6082;49.306;12.862;2024-03-07T09:47:00;3.70;99.90
12043;DHT22;6082;49.306;12.862;2024-03-07T09:49:28;3.70;99.90
12043;DHT22;6082;49.306;12.862;2024-03-07T09:51:56;3.70;99.90
12043;DHT22;6082;49.306;12.862;2024-03-07T09:54:24;3.70;99.90
12043;DHT22;6082;49.306;12.862;2024-03-07T09:56:53;3.80;99.90
12043;DHT22;6082;49.306;12.862;2024-03-07T09:59:20;3.80;99.90
12043;DHT22;6082;49.306;12.862;2024-03-07T10:01:50;3.80;99.90
12043;DHT22;6082;49.306;12.862;2024-03-07T10:04:29;3.80;99.90
12043;DHT22;6082;49.306;12.862;2024-03-07T10:06:57;3.80;99.90
12043;DHT22;6082;49.306;12.862;2024-03-07T10:09:24;3.90;99.90
12043;DHT22;6082;49.306;12.862;2024-03-07T10:11:57;3.90;99.90
12043;DHT22;6082;49.306;12.862;2024-03-07T10:14:23;4.00;99.90
12043;DHT22;6082;49.306;12.862;2024-03-07T10:16:48;4.10;99.90
12043;DHT22;6082;49.306;12.862;2024-03-07T10:19:15;4.20;99.90
12043;DHT22;6082;49.306;12.862;2024-03-07T10:21:41;4.30;99.90
12043;DHT22;6082;49.306;12.862;2024-03-07T10:24:07;4.40;99.90
12043;DHT22;6082;49.306;12.862;2024-03-07T10:26:37;4.50;99.90
12043;DHT22;6082;49.306;12.862;2024-03-07T10:29:04;4.60;99.90
12043;DHT22;6082;49.306;12.862;2024-03-07T10:31:33;4.60;99.90
12043;DHT22;6082;49.306;12.862;2024-03-07T10:34:00;4.70;99.90
12043;DHT22;6082;49.306;12.862;2024-03-07T10:36:31;4.70;99.90
12043;DHT22;6082;49.306;12.862;2024-03-07T10:38:58;4.70;99.90
12043;DHT22;6082;49.306;12.862;2024-03-07T10:41:45;4.80;99.90
12043;DHT22;6082;49.306;12.862;2024-03-07T10:44:24;4.80;99.90
12043;DHT22;6082;49.306;12.862;2024-03-07T10:46:55;4.80;99.90
12043;DHT22;6082;49.306;12.862;2024-03-07T10:49:25;4.90;99.90
12043;DHT22;6082;49.306;12.862;2024-03-07T10:52:23;4.90;99.90
12043;DHT22;6082;49.306;12.862;2024-03-07T10:58:02;5.00;99.90
12043;DHT22;6082;49.306;12.862;2024-03-07T11:00:33;5.00;99.90
12043;DHT22;6082;49.306;12.862;2024-03-07T11:03:02;5.10;99.90
12043;DHT22;6082;49.306;12.862;2024-03-07T11:05:33;5.10;99.90
12043;DHT22;6082;49.306;12.862;2024-03-07T11:08:01;5.10;99.90
12043;DHT22;6082;49.306;12.862;2024-03-07T11:10:37;5.10;99.90
12043;DHT22;6082;49.306;12.862;2024-03-07T11:13:08;5.10;99.90
12043;DHT22;6082;49.306;12.862;2024-03-07T11:15:40;5.10;99.90
12043;DHT22;6082;49.306;12.862;2024-03-07T11:18:07;5.10;99.90
12043;DHT22;6082;49.306;12.862;2024-03-07T11:20:37;5.10;99.90
12043;DHT22;6082;49.306;12.862;2024-03-07T11:23:29;5.10;99.90
12043;DHT22;6082;49.306;12.862;2024-03-07T11:26:06;5.20;99.90
12043;DHT22;6082;49.306;12.862;2024-03-07T11:28:42;5.20;99.90
12043;DHT22;6082;49.306;12.862;2024-03-07T11:31:16;5.20;99.90
12043;DHT22;6082;49.306;12.862;2024-03-07T11:34:12;5.30;99.90
12043;DHT22;6082;49.306;12.862;2024-03-07T11:36:42;5.30;99.90
12043;DHT22;6082;49.306;12.862;2024-03-07T11:39:39;5.30;99.90
12043;DHT22;6082;49.306;12.862;2024-03-07T11:42:07;5.20;99.90
12043;DHT22;6082;49.306;12.862;2024-03-07T11:44:32;5.20;99.90
12043;DHT22;6082;49.306;12.862;2024-03-07T11:47:04;5.30;99.90
12043;DHT22;6082;49.306;12.862;2024-03-07T11:49:37;5.10;99.90
12043;DHT22;6082;49.306;12.862;2024-03-07T11:52:05;5.20;99.90
12043;DHT22;6082;49.306;12.862;2024-03-07T11:54:39;5.10;99.90
12043;DHT22;6082;49.306;12.862;2024-03-07T11:57:12;5.10;99.90
12043;DHT22;6082;49.306;12.862;2024-03-07T11:59:44;5.10;99.90
12043;DHT22;6082;49.306;12.862;2024-03-07T12:02:14;5.20;99.90
12043;DHT22;6082;49.306;12.862;2024-03-07T12:04:43;5.20;99.90
12043;DHT22;6082;49.306;12.862;2024-03-07T12:07:10;5.10;99.90
12043;DHT22;6082;49.306;12.862;2024-03-07T12:09:43;5.00;99.90
12043;DHT22;6082;49.306;12.862;2024-03-07T12:12:16;4.90;99.90
12043;DHT22;6082;49.306;12.862;2024-03-07T12:14:47;4.90;99.90
12043;DHT22;6082;49.306;12.862;2024-03-07T12:17:14;5.00;99.90
12043;DHT22;6082;49.306;12.862;2024-03-07T12:19:42;4.90;99.90
12043;DHT22;6082;49.306;12.862;2024-03-07T12:22:11;4.80;99.90
12043;DHT22;6082;49.306;12.862;2024-03-07T12:24:41;4.70;99.90
12043;DHT22;6082;49.306;12.862;2024-03-07T12:27:09;4.70;99.90
12043;DHT22;6082;49.306;12.862;2024-03-07T12:29:36;4.60;99.90
12043;DHT22;6082;49.306;12.862;2024-03-07T12:32:05;4.60;99.90
12043;DHT22;6082;49.306;12.862;2024-03-07T12:34:36;4.60;99.90
12043;DHT22;6082;49.306;12.862;2024-03-07T12:37:07;4.50;99.90
12043;DHT22;6082;49.306;12.862;2024-03-07T12:39:33;4.50;99.90
12043;DHT22;6082;49.306;12.862;2024-03-07T12:42:04;4.50;99.90
12043;DHT22;6082;49.306;12.862;2024-03-07T12:44:43;4.60;99.90
12043;DHT22;6082;49.306;12.862;2024-03-07T12:49:40;4.50;99.90
12043;DHT22;6082;49.306;12.862;2024-03-07T12:52:06;4.50;99.90
12043;DHT22;6082;49.306;12.862;2024-03-07T12:54:37;4.50;99.90
12043;DHT22;6082;49.306;12.862;2024-03-07T12:57:10;4.50;99.90
12043;DHT22;6082;49.306;12.862;2024-03-07T12:59:37;4.40;99.90
12043;DHT22;6082;49.306;12.862;2024-03-07T13:02:04;4.50;99.90
12043;DHT22;6082;49.306;12.862;2024-03-07T13:04:33;4.50;99.90
12043;DHT22;6082;49.306;12.862;2024-03-07T13:06:59;4.50;99.90
12043;DHT22;6082;49.306;12.862;2024-03-07T13:09:30;4.50;99.90
12043;DHT22;6082;49.306;12.862;2024-03-07T13:11:57;4.50;99.90
12043;DHT22;6082;49.306;12.862;2024-03-07T13:14:28;4.50;99.90
12043;DHT22;6082;49.306;12.862;2024-03-07T13:17:04;4.50;99.90
12043;DHT22;6082;49.306;12.862;2024-03-07T13:19:32;4.50;99.90
12043;DHT22;6082;49.306;12.862;2024-03-07T13:21:58;4.60;99.90
12043;DHT22;6082;49.306;12.862;2024-03-07T13:24:25;4.70;99.90
12043;DHT22;6082;49.306;12.862;2024-03-07T13:26:51;4.80;99.90
12043;DHT22;6082;49.306;12.862;2024-03-07T13:29:17;4.80;99.90
12043;DHT22;6082;49.306;12.862;2024-03-07T13:31:47;4.90;99.90
12043;DHT22;6082;49.306;12.862;2024-03-07T13:34:13;5.00;99.90
12043;DHT22;6082;49.306;12.862;2024-03-07T13:36:40;5.00;99.90
12043;DHT22;6082;49.306;12.862;2024-03-07T13:39:07;4.90;99.90
12043;DHT22;6082;49.306;12.862;2024-03-07T13:41:40;4.90;99.90
12043;DHT22;6082;49.306;12.862;2024-03-07T13:44:06;4.90;99.90
12043;DHT22;6082;49.306;12.862;2024-03-07T13:46:32;4.80;99.90
12043;DHT22;6082;49.306;12.862;2024-03-07T13:49:02;4.80;99.90
12043;DHT22;6082;49.306;12.862;2024-03-07T13:51:43;4.80;99.90
12043;DHT22;6082;49.306;12.862;2024-03-07T13:54:28;4.80;99.90
12043;DHT22;6082;49.306;12.862;2024-03-07T14:00:15;4.70;99.90
12043;DHT22;6082;49.306;12.862;2024-03-07T14:32:56;5.30;99.90
12043;DHT22;6082;49.306;12.862;2024-03-07T14:35:39;5.30;99.90
12043;DHT22;6082;49.306;12.862;2024-03-07T14:41:18;5.30;99.90
12043;DHT22;6082;49.306;12.862;2024-03-07T14:43:44;5.40;99.90
12043;DHT22;6082;49.306;12.862;2024-03-07T14:46:11;5.40;99.90
12043;DHT22;6082;49.306;12.862;2024-03-07T14:48:39;5.50;99.90
12043;DHT22;6082;49.306;12.862;2024-03-07T14:51:07;5.50;99.90
12043;DHT22;6082;49.306;12.862;2024-03-07T14:53:34;5.60;99.90
12043;DHT22;6082;49.306;12.862;2024-03-07T14:56:00;5.80;99.90
12043;DHT22;6082;49.306;12.862;2024-03-07T14:58:26;5.80;99.90
12043;DHT22;6082;49.306;12.862;2024-03-07T15:00:52;6.00;99.90
12043;DHT22;6082;49.306;12.862;2024-03-07T15:03:20;5.90;99.90
12043;DHT22;6082;49.306;12.862;2024-03-07T15:05:46;6.00;99.90
12043;DHT22;6082;49.306;12.862;2024-03-07T15:08:16;5.90;99.90
12043;DHT22;6082;49.306;12.862;2024-03-07T15:11:14;5.80;99.90
12043;DHT22;6082;49.306;12.862;2024-03-07T15:13:42;5.80;99.90
12043;DHT22;6082;49.306;12.862;2024-03-07T15:16:08;5.60;99.90
12043;DHT22;6082;49.306;12.862;2024-03-07T15:18:34;5.60;99.90
12043;DHT22;6082;49.306;12.862;2024-03-07T15:21:00;5.60;99.90
12043;DHT22;6082;49.306;12.862;2024-03-07T15:23:25;5.60;99.90
12043;DHT22;6082;49.306;12.862;2024-03-07T15:25:52;5.70;99.90
12043;DHT22;6082;49.306;12.862;2024-03-07T15:28:18;5.60;99.90
12043;DHT22;6082;49.306;12.862;2024-03-07T15:30:43;5.50;99.90
12043;DHT22;6082;49.306;12.862;2024-03-07T15:33:09;5.50;99.90
12043;DHT22;6082;49.306;12.862;2024-03-07T15:35:35;5.50;99.90
12043;DHT22;6082;49.306;12.862;2024-03-07T15:38:01;5.60;99.90
12043;DHT22;6082;49.306;12.862;2024-03-07T15:40:27;5.60;99.90
12043;DHT22;6082;49.306;12.862;2024-03-07T15:42:55;5.60;99.90
12043;DHT22;6082;49.306;12.862;2024-03-07T15:45:25;5.50;99.90
12043;DHT22;6082;49.306;12.862;2024-03-07T15:47:53;5.60;99.90
12043;DHT22;6082;49.306;12.862;2024-03-07T15:50:21;5.60;99.90
12043;DHT22;6082;49.306;12.862;2024-03-07T15:52:49;5.60;99.90
12043;DHT22;6082;49.306;12.862;2024-03-07T15:55:17;5.60;99.90
12043;DHT22;6082;49.306;12.862;2024-03-07T15:57:48;5.50;99.90
12043;DHT22;6082;49.306;12.862;2024-03-07T16:00:23;5.50;99.90
12043;DHT22;6082;49.306;12.862;2024-03-07T16:03:00;5.50;99.90
12043;DHT22;6082;49.306;12.862;2024-03-07T16:05:27;5.50;99.90
12043;DHT22;6082;49.306;12.862;2024-03-07T16:07:54;5.50;99.90
12043;DHT22;6082;49.306;12.862;2024-03-07T16:10:28;5.40;99.90
12043;DHT22;6082;49.306;12.862;2024-03-07T16:12:56;5.40;99.90
12043;DHT22;6082;49.306;12.862;2024-03-07T16:15:22;5.40;99.90
12043;DHT22;6082;49.306;12.862;2024-03-07T16:17:49;5.40;99.90
12043;DHT22;6082;49.306;12.862;2024-03-07T16:20:15;5.40;99.90
12043;DHT22;6082;49.306;12.862;2024-03-07T16:22:46;5.30;99.90
12043;DHT22;6082;49.306;12.862;2024-03-07T16:25:15;5.20;99.90
12043;DHT22;6082;49.306;12.862;2024-03-07T16:27:44;5.10;99.90
12043;DHT22;6082;49.306;12.862;2024-03-07T16:30:17;5.10;99.90
12043;DHT22;6082;49.306;12.862;2024-03-07T16:32:44;5.10;99.90
12043;DHT22;6082;49.306;12.862;2024-03-07T16:35:18;5.00;99.90